Baker, FL (32531)

9:10 PM CDT on July 25, 2016 (GMT -0500)
18FD SKY RANCH AIRPORT BAKER FLORIDA | | Change Station

Elev 246 ft 30.85 °N, 86.67 °W | Updated 8 seconds ago

Scattered Clouds
Scattered Clouds
78.6 °F
Feels Like 82 °F
N
1.3
Wind Variable Wind from East
Gusts 2.5 mph

Today
High -- | Low -- °F
--% Chance of Precip.
Yesterday
High -- | Low -- °F
Precip. -- in
Pressure 30.00 in
Visibility 10.0 miles
Clouds Few 2500 ft
Few 3400 ft
Scattered Clouds 4300 ft
Heat Index 82 °F
Dew Point 75 °F
Humidity 88%
Rainfall 0.12 in
Snow Depth Not available.
6:00 AM 7:46 PM
Waning Gibbous, 60% visible
METAR KCEW 260153Z AUTO 11005KT 10SM FEW025 FEW034 SCT043 26/24 A3001 RMK AO2 SLP159 T02560239
Pressure 30.00 in
Visibility 10.0 miles
Clouds Few 2500 ft
Few 3400 ft
Scattered Clouds 4300 ft
Heat Index 82 °F
Dew Point 75 °F
Humidity 88%
Rainfall 0.12 in
Snow Depth Not available.
6:00 AM 7:46 PM
Waning Gibbous, 60% visible
METAR KCEW 260153Z AUTO 11005KT 10SM FEW025 FEW034 SCT043 26/24 A3001 RMK AO2 SLP159 T02560239
Record highs are possible for parts of the Northeast Monday and Tuesday, as parts of the central U.S. take a little breather from the worst of summer's dog day heat.

Expansive high pressure in the upper atmosphere will focus on parts of the East and West this week, sending heat indices well into the triple digits from the Mid-Atlantic states into the South.

10-Day Weather Forecast

Almanac

Astronomy

Jul. 25, 2016 Rise Set
Actual Time
Civil Twilight
Nautical Twilight
Astronomical Twilight
Moon
Length of Visible Light
Length of Day
Tomorrow will be .
, % of the Moon is Illuminated

Today's Extremes

State Highs State Lows

Community

WunderPhotos

Upload Photos

1,927,497 photos uploaded!

WunderBlog® & News

Nearby

Air Quality

  Air Quality AQ Index Pollutant
Not available.

Snow Depth

Station Depth Elevation

Earthquake Activity

City Distance Mag. Time & Date
Minimum magnitude displayed is 2.5.

Coastal Water Temperatures

Place Temperature

Stations

Nearby Weather Stations

Station Location Temp. Windchill Dew Point Humidity Wind Precip. Elev Updated Type
                   

Watches & Warnings

There are currently no watches in effect.